Terminal Aerodrome Forecast
Issued by NWS

Home | Current Version | Previous Version | Text Only | Print | Product List | Glossary On
Versions: 1 2 3 4 5 6 7 8 9 10 11 12 13 14 15 16 17 18 19 20 21 22
000
FTAK31 PANC 271121
TAFACD
TAF
PACD 271121Z 2712/2812 15016KT P6SM -SHRA BKN025 BKN040
      TEMPO 2712/2716 16018G25KT SCT025 BKN040
     FM272000 16018G25KT P6SM -SHRA BKN025
     FM280600 16014KT P6SM -SHRA BKN015=

USA.gov is the U.S. government's official web portal to all federal, state and local government web resources and services.